createdAt,value
2023-03-26T00:01:58.561Z,8.94
2023-03-26T00:08:57.398Z,8.83
2023-03-26T00:15:41.470Z,8.77
2023-03-26T00:22:34.746Z,8.69
2023-03-26T00:25:16.169Z,8.72
2023-03-26T00:32:15.079Z,8.70
2023-03-26T00:43:22.406Z,8.82
2023-03-26T00:50:16.762Z,8.89
2023-03-26T00:57:08.174Z,8.77
2023-03-26T01:04:28.587Z,8.65
2023-03-26T01:11:19.222Z,8.55
2023-03-26T01:18:23.275Z,8.46
2023-03-26T01:25:14.471Z,8.38
2023-03-26T01:32:21.956Z,8.32
2023-03-26T01:47:47.733Z,8.05
2023-03-26T01:54:43.169Z,8.00
2023-03-26T02:01:47.443Z,8.07
2023-03-26T02:08:49.122Z,8.05
2023-03-26T02:15:35.674Z,8.07
2023-03-26T02:22:22.633Z,7.96
2023-03-26T02:29:12.497Z,7.84
2023-03-26T02:36:11.002Z,7.70
2023-03-26T02:42:53.669Z,7.56
2023-03-26T02:49:55.270Z,7.42
2023-03-26T02:57:01.661Z,7.27
2023-03-26T03:01:14.829Z,7.24
2023-03-26T03:08:18.581Z,6.76
2023-03-26T03:15:30.584Z,6.45
2023-03-26T03:18:57.849Z,6.48
2023-03-26T03:26:04.036Z,6.01
2023-03-26T03:38:03.463Z,5.53
2023-03-26T03:41:12.100Z,5.52
2023-03-26T03:48:03.698Z,5.42
2023-03-26T03:55:04.617Z,5.80
2023-03-26T04:02:03.445Z,6.69
2023-03-26T04:08:49.570Z,6.76
2023-03-26T04:12:21.179Z,6.76
2023-03-26T04:19:27.543Z,6.79
2023-03-26T04:26:10.664Z,6.77
2023-03-26T04:33:28.492Z,6.77
2023-03-26T04:49:31.815Z,7.25
2023-03-26T04:56:36.068Z,7.39
2023-03-26T05:03:45.882Z,6.90
2023-03-26T05:10:36.893Z,6.28
2023-03-26T05:17:31.057Z,5.97
2023-03-26T05:24:27.281Z,5.95
2023-03-26T05:31:10.964Z,6.04
2023-03-26T05:38:04.508Z,6.15
2023-03-26T05:49:07.052Z,6.59
2023-03-26T05:55:58.078Z,7.36
2023-03-26T06:03:04.638Z,8.66
2023-03-26T06:14:48.940Z,8.86
2023-03-26T06:21:47.348Z,9.37
2023-03-26T06:28:53.732Z,10.16
2023-03-26T06:36:15.020Z,10.52
2023-03-26T06:43:10.841Z,11.15
2023-03-26T06:54:47.040Z,11.60
2023-03-26T06:58:04.978Z,11.67
2023-03-26T07:05:13.921Z,11.43
2023-03-26T07:12:28.175Z,11.57
2023-03-26T07:19:28.310Z,11.78
2023-03-26T07:30:57.869Z,11.77
2023-03-26T07:38:25.920Z,11.95
2023-03-26T07:49:49.572Z,12.69
2023-03-26T07:57:04.454Z,12.88
2023-03-26T08:04:26.190Z,12.84
2023-03-26T08:11:54.891Z,12.92
2023-03-26T08:18:48.905Z,13.15
2023-03-26T08:54:25.884Z,13.33
2023-03-26T09:10:29.686Z,13.18
2023-03-26T09:17:43.379Z,13.42
2023-03-26T09:29:24.381Z,13.82
2023-03-26T09:36:35.157Z,14.05
2023-03-26T09:44:04.286Z,14.12
2023-03-26T09:51:39.046Z,14.40
2023-03-26T10:03:36.539Z,14.36
2023-03-26T10:31:37.956Z,14.35
2023-03-26T13:10:00.669Z,17.97
2023-03-26T13:17:06.552Z,17.61
2023-03-26T13:24:22.112Z,17.21
2023-03-26T13:31:24.667Z,17.78
2023-03-26T13:38:23.056Z,17.97
2023-03-26T13:45:49.285Z,18.47
2023-03-26T14:09:38.700Z,18.54
2023-03-26T14:16:40.870Z,18.45
2023-03-26T14:44:49.159Z,17.87
2023-03-26T14:56:48.596Z,17.68
2023-03-26T15:20:56.093Z,17.28
2023-03-26T15:28:32.178Z,17.24
2023-03-26T15:35:50.187Z,17.23
2023-03-26T15:43:36.334Z,17.04
2023-03-26T15:50:49.921Z,16.90
2023-03-26T15:57:58.321Z,16.69
2023-03-26T16:04:54.946Z,16.52
2023-03-26T16:11:57.206Z,16.22
2023-03-26T16:28:31.048Z,15.86
2023-03-26T16:35:42.157Z,15.69
2023-03-26T16:42:42.997Z,15.55
2023-03-26T16:50:07.753Z,15.32
2023-03-26T16:57:23.619Z,14.91
2023-03-26T17:04:30.332Z,14.80
2023-03-26T17:11:38.931Z,14.56
2023-03-26T17:22:49.132Z,14.40
2023-03-26T17:30:34.314Z,14.45
2023-03-26T17:41:58.346Z,14.28
2023-03-26T17:49:00.137Z,14.15
2023-03-26T17:55:46.670Z,14.04
2023-03-26T18:02:51.769Z,13.98
2023-03-26T18:10:00.041Z,13.98
2023-03-26T18:16:54.839Z,13.80
2023-03-26T18:23:53.181Z,13.67
2023-03-26T18:30:55.500Z,13.52
2023-03-26T18:42:00.646Z,13.27
2023-03-26T18:48:57.650Z,13.05
2023-03-26T18:55:51.190Z,12.77
2023-03-26T19:03:09.493Z,12.56
2023-03-26T19:10:05.730Z,12.69
2023-03-26T19:17:01.177Z,12.75
2023-03-26T19:27:58.338Z,12.61
2023-03-26T19:34:45.966Z,12.68
2023-03-26T19:41:40.933Z,12.43
2023-03-26T19:48:45.745Z,12.36
2023-03-26T19:55:46.229Z,12.10
2023-03-26T20:02:36.113Z,11.99
2023-03-26T20:09:37.728Z,11.93
2023-03-26T20:16:29.623Z,11.88
2023-03-26T20:23:24.273Z,11.77
2023-03-26T20:30:27.440Z,11.78
2023-03-26T20:41:59.263Z,11.71
2023-03-26T20:48:51.947Z,11.57
2023-03-26T20:55:54.936Z,11.81
2023-03-26T21:02:45.113Z,11.79
2023-03-26T21:09:44.989Z,11.61
2023-03-26T21:16:32.517Z,11.45
2023-03-26T21:23:39.148Z,11.31
2023-03-26T21:30:24.695Z,11.17
2023-03-26T21:42:04.257Z,11.00
2023-03-26T21:48:56.410Z,10.57
2023-03-26T21:56:03.400Z,10.13
2023-03-26T22:02:56.488Z,9.96
2023-03-26T22:09:51.358Z,9.99
2023-03-26T22:16:38.582Z,10.02
2023-03-26T22:23:36.546Z,9.94
2023-03-26T22:30:24.777Z,9.86
2023-03-26T22:38:29.685Z,9.79
2023-03-26T22:45:24.905Z,9.66
2023-03-26T22:52:13.099Z,9.65
2023-03-26T22:59:00.442Z,9.68
2023-03-26T23:05:59.700Z,9.62
2023-03-26T23:12:46.322Z,9.65
2023-03-26T23:24:07.395Z,9.63
2023-03-26T23:31:02.325Z,9.55
2023-03-26T23:37:50.963Z,9.55
2023-03-26T23:44:46.503Z,9.52
2023-03-26T23:51:36.180Z,9.32
2023-03-26T23:58:24.837Z,9.24
